sensor_id;sensor_type;location;lat;lon;timestamp;temperature;humidity
12111;DHT22;6119;52.372;8.990;2023-05-06T00:00:24;14.30;99.90
12111;DHT22;6119;52.372;8.990;2023-05-06T00:03:11;14.20;99.90
12111;DHT22;6119;52.372;8.990;2023-05-06T00:05:58;14.20;99.90
12111;DHT22;6119;52.372;8.990;2023-05-06T00:08:44;14.20;99.90
12111;DHT22;6119;52.372;8.990;2023-05-06T00:11:32;14.10;99.90
12111;DHT22;6119;52.372;8.990;2023-05-06T00:14:19;14.20;99.90
12111;DHT22;6119;52.372;8.990;2023-05-06T00:17:05;14.20;99.90
12111;DHT22;6119;52.372;8.990;2023-05-06T00:19:53;14.30;99.90
12111;DHT22;6119;52.372;8.990;2023-05-06T00:22:40;14.30;99.90
12111;DHT22;6119;52.372;8.990;2023-05-06T00:25:26;14.20;99.90
12111;DHT22;6119;52.372;8.990;2023-05-06T00:28:14;14.20;99.90
12111;DHT22;6119;52.372;8.990;2023-05-06T00:31:01;14.30;99.90
12111;DHT22;6119;52.372;8.990;2023-05-06T00:33:47;14.30;99.90
12111;DHT22;6119;52.372;8.990;2023-05-06T00:36:34;14.30;99.90
12111;DHT22;6119;52.372;8.990;2023-05-06T00:39:20;14.10;99.90
12111;DHT22;6119;52.372;8.990;2023-05-06T00:42:07;14.00;99.90
12111;DHT22;6119;52.372;8.990;2023-05-06T00:44:54;14.00;99.90
12111;DHT22;6119;52.372;8.990;2023-05-06T00:47:41;14.00;99.90
12111;DHT22;6119;52.372;8.990;2023-05-06T00:50:29;14.10;99.90
12111;DHT22;6119;52.372;8.990;2023-05-06T00:53:19;13.90;99.90
12111;DHT22;6119;52.372;8.990;2023-05-06T00:56:06;14.00;99.90
12111;DHT22;6119;52.372;8.990;2023-05-06T00:58:53;13.90;99.90
12111;DHT22;6119;52.372;8.990;2023-05-06T01:01:41;14.00;99.90
12111;DHT22;6119;52.372;8.990;2023-05-06T01:04:28;13.90;99.90
12111;DHT22;6119;52.372;8.990;2023-05-06T01:07:21;14.00;99.90
12111;DHT22;6119;52.372;8.990;2023-05-06T01:10:12;14.00;99.90
12111;DHT22;6119;52.372;8.990;2023-05-06T01:13:08;14.00;99.90
12111;DHT22;6119;52.372;8.990;2023-05-06T01:15:58;14.00;99.90
12111;DHT22;6119;52.372;8.990;2023-05-06T01:18:48;14.00;99.90
12111;DHT22;6119;52.372;8.990;2023-05-06T01:21:35;13.90;99.90
12111;DHT22;6119;52.372;8.990;2023-05-06T01:24:38;13.80;99.90
12111;DHT22;6119;52.372;8.990;2023-05-06T01:27:25;13.80;99.90
12111;DHT22;6119;52.372;8.990;2023-05-06T01:30:12;13.70;99.90
12111;DHT22;6119;52.372;8.990;2023-05-06T01:33:03;13.60;99.90
12111;DHT22;6119;52.372;8.990;2023-05-06T01:35:59;13.60;99.90
12111;DHT22;6119;52.372;8.990;2023-05-06T01:38:53;13.60;99.90
12111;DHT22;6119;52.372;8.990;2023-05-06T01:41:43;13.40;99.90
12111;DHT22;6119;52.372;8.990;2023-05-06T01:44:32;13.50;99.90
12111;DHT22;6119;52.372;8.990;2023-05-06T01:47:19;13.60;99.90
12111;DHT22;6119;52.372;8.990;2023-05-06T01:50:06;13.60;99.90
12111;DHT22;6119;52.372;8.990;2023-05-06T01:53:00;13.50;99.90
12111;DHT22;6119;52.372;8.990;2023-05-06T01:55:47;13.60;99.90
12111;DHT22;6119;52.372;8.990;2023-05-06T01:58:35;13.50;99.90
12111;DHT22;6119;52.372;8.990;2023-05-06T02:01:22;13.40;99.90
12111;DHT22;6119;52.372;8.990;2023-05-06T02:04:09;13.50;99.90
12111;DHT22;6119;52.372;8.990;2023-05-06T02:06:55;13.50;99.90
12111;DHT22;6119;52.372;8.990;2023-05-06T02:09:42;13.50;99.90
12111;DHT22;6119;52.372;8.990;2023-05-06T02:12:29;13.30;99.90
12111;DHT22;6119;52.372;8.990;2023-05-06T02:15:17;13.40;99.90
12111;DHT22;6119;52.372;8.990;2023-05-06T02:18:03;13.30;99.90
12111;DHT22;6119;52.372;8.990;2023-05-06T02:20:50;13.40;99.90
12111;DHT22;6119;52.372;8.990;2023-05-06T02:23:37;13.30;99.90
12111;DHT22;6119;52.372;8.990;2023-05-06T02:26:23;13.30;99.90
12111;DHT22;6119;52.372;8.990;2023-05-06T02:29:09;13.30;99.90
12111;DHT22;6119;52.372;8.990;2023-05-06T02:31:57;13.30;99.90
12111;DHT22;6119;52.372;8.990;2023-05-06T02:34:44;13.10;99.90
12111;DHT22;6119;52.372;8.990;2023-05-06T02:37:30;12.90;99.90
12111;DHT22;6119;52.372;8.990;2023-05-06T02:40:17;13.00;99.90
12111;DHT22;6119;52.372;8.990;2023-05-06T02:43:03;13.00;99.90
12111;DHT22;6119;52.372;8.990;2023-05-06T02:45:50;13.00;99.90
12111;DHT22;6119;52.372;8.990;2023-05-06T02:48:38;13.00;99.90
12111;DHT22;6119;52.372;8.990;2023-05-06T02:51:25;12.90;99.90
12111;DHT22;6119;52.372;8.990;2023-05-06T02:54:11;12.90;99.90
12111;DHT22;6119;52.372;8.990;2023-05-06T02:56:58;12.90;99.90
12111;DHT22;6119;52.372;8.990;2023-05-06T02:59:45;12.80;99.90
12111;DHT22;6119;52.372;8.990;2023-05-06T03:02:31;12.70;99.90
12111;DHT22;6119;52.372;8.990;2023-05-06T03:05:19;12.50;99.90
12111;DHT22;6119;52.372;8.990;2023-05-06T03:08:06;12.60;99.90
12111;DHT22;6119;52.372;8.990;2023-05-06T03:10:53;12.60;99.90
12111;DHT22;6119;52.372;8.990;2023-05-06T03:13:39;12.60;99.90
12111;DHT22;6119;52.372;8.990;2023-05-06T03:16:25;12.60;99.90
12111;DHT22;6119;52.372;8.990;2023-05-06T03:19:12;12.50;99.90
12111;DHT22;6119;52.372;8.990;2023-05-06T03:22:00;12.50;99.90
12111;DHT22;6119;52.372;8.990;2023-05-06T03:24:47;12.50;99.90
12111;DHT22;6119;52.372;8.990;2023-05-06T03:27:33;12.50;99.90
12111;DHT22;6119;52.372;8.990;2023-05-06T03:30:20;12.50;99.90
12111;DHT22;6119;52.372;8.990;2023-05-06T03:33:06;12.50;99.90
12111;DHT22;6119;52.372;8.990;2023-05-06T03:35:53;12.40;99.90
12111;DHT22;6119;52.372;8.990;2023-05-06T03:38:41;12.40;99.90
12111;DHT22;6119;52.372;8.990;2023-05-06T03:41:28;12.40;99.90
12111;DHT22;6119;52.372;8.990;2023-05-06T03:44:15;12.40;99.90
12111;DHT22;6119;52.372;8.990;2023-05-06T03:47:01;12.40;99.90
12111;DHT22;6119;52.372;8.990;2023-05-06T03:49:48;12.50;99.90
12111;DHT22;6119;52.372;8.990;2023-05-06T03:52:34;12.50;99.90
12111;DHT22;6119;52.372;8.990;2023-05-06T03:55:22;12.50;99.90
12111;DHT22;6119;52.372;8.990;2023-05-06T03:58:09;12.50;99.90
12111;DHT22;6119;52.372;8.990;2023-05-06T04:00:56;12.60;99.90
12111;DHT22;6119;52.372;8.990;2023-05-06T04:03:45;12.50;99.90
12111;DHT22;6119;52.372;8.990;2023-05-06T04:06:32;12.60;99.90
12111;DHT22;6119;52.372;8.990;2023-05-06T04:09:18;12.60;99.90
12111;DHT22;6119;52.372;8.990;2023-05-06T04:12:06;12.70;99.90
12111;DHT22;6119;52.372;8.990;2023-05-06T04:14:53;12.70;99.90
12111;DHT22;6119;52.372;8.990;2023-05-06T04:17:39;12.70;99.90
12111;DHT22;6119;52.372;8.990;2023-05-06T04:20:26;12.70;99.90
12111;DHT22;6119;52.372;8.990;2023-05-06T04:23:13;12.70;99.90
12111;DHT22;6119;52.372;8.990;2023-05-06T04:26:00;12.60;99.90
12111;DHT22;6119;52.372;8.990;2023-05-06T04:28:48;12.70;99.90
12111;DHT22;6119;52.372;8.990;2023-05-06T04:31:35;12.70;99.90
12111;DHT22;6119;52.372;8.990;2023-05-06T04:34:21;12.70;99.90
12111;DHT22;6119;52.372;8.990;2023-05-06T04:37:09;12.70;99.90
12111;DHT22;6119;52.372;8.990;2023-05-06T04:39:55;12.80;99.90
12111;DHT22;6119;52.372;8.990;2023-05-06T04:42:42;12.80;99.90
12111;DHT22;6119;52.372;8.990;2023-05-06T04:45:30;12.80;99.90
12111;DHT22;6119;52.372;8.990;2023-05-06T04:48:19;12.80;99.90
12111;DHT22;6119;52.372;8.990;2023-05-06T04:51:07;12.90;99.90
12111;DHT22;6119;52.372;8.990;2023-05-06T04:53:53;13.00;99.90
12111;DHT22;6119;52.372;8.990;2023-05-06T04:56:39;12.90;99.90
12111;DHT22;6119;52.372;8.990;2023-05-06T04:59:26;12.80;99.90
12111;DHT22;6119;52.372;8.990;2023-05-06T05:02:14;12.90;99.90
12111;DHT22;6119;52.372;8.990;2023-05-06T05:05:00;12.90;99.90
12111;DHT22;6119;52.372;8.990;2023-05-06T05:07:47;13.00;99.90
12111;DHT22;6119;52.372;8.990;2023-05-06T05:10:33;13.00;99.90
12111;DHT22;6119;52.372;8.990;2023-05-06T05:13:19;13.10;99.90
12111;DHT22;6119;52.372;8.990;2023-05-06T05:16:06;13.00;99.90
12111;DHT22;6119;52.372;8.990;2023-05-06T05:18:55;13.00;99.90
12111;DHT22;6119;52.372;8.990;2023-05-06T05:21:41;13.10;99.90
12111;DHT22;6119;52.372;8.990;2023-05-06T05:24:28;13.20;99.90
12111;DHT22;6119;52.372;8.990;2023-05-06T05:27:14;13.20;99.90
12111;DHT22;6119;52.372;8.990;2023-05-06T05:30:01;13.40;99.90
12111;DHT22;6119;52.372;8.990;2023-05-06T05:32:47;13.40;99.90
12111;DHT22;6119;52.372;8.990;2023-05-06T05:35:36;13.40;99.90
12111;DHT22;6119;52.372;8.990;2023-05-06T05:38:23;13.30;99.90
12111;DHT22;6119;52.372;8.990;2023-05-06T05:41:09;13.30;99.90
12111;DHT22;6119;52.372;8.990;2023-05-06T05:43:56;13.40;99.90
12111;DHT22;6119;52.372;8.990;2023-05-06T05:46:42;13.50;99.90
12111;DHT22;6119;52.372;8.990;2023-05-06T05:49:29;13.50;99.90
12111;DHT22;6119;52.372;8.990;2023-05-06T05:52:17;13.50;99.90
12111;DHT22;6119;52.372;8.990;2023-05-06T05:55:04;13.30;99.90
12111;DHT22;6119;52.372;8.990;2023-05-06T05:57:51;13.40;99.90
12111;DHT22;6119;52.372;8.990;2023-05-06T06:00:37;13.40;99.90
12111;DHT22;6119;52.372;8.990;2023-05-06T06:03:23;13.40;99.90
12111;DHT22;6119;52.372;8.990;2023-05-06T06:06:10;13.30;99.90
12111;DHT22;6119;52.372;8.990;2023-05-06T06:08:59;13.40;99.90
12111;DHT22;6119;52.372;8.990;2023-05-06T06:11:45;13.50;99.90
12111;DHT22;6119;52.372;8.990;2023-05-06T06:14:31;13.60;99.90
12111;DHT22;6119;52.372;8.990;2023-05-06T06:17:18;13.60;99.90
12111;DHT22;6119;52.372;8.990;2023-05-06T06:20:05;13.60;99.90
12111;DHT22;6119;52.372;8.990;2023-05-06T06:22:52;13.60;99.90
12111;DHT22;6119;52.372;8.990;2023-05-06T06:25:40;13.30;99.90
12111;DHT22;6119;52.372;8.990;2023-05-06T06:28:27;13.60;99.90
12111;DHT22;6119;52.372;8.990;2023-05-06T06:31:13;13.60;99.90
12111;DHT22;6119;52.372;8.990;2023-05-06T06:34:00;13.60;99.90
12111;DHT22;6119;52.372;8.990;2023-05-06T06:36:49;13.60;99.90
12111;DHT22;6119;52.372;8.990;2023-05-06T06:39:36;13.50;99.90
12111;DHT22;6119;52.372;8.990;2023-05-06T06:42:24;13.60;99.90
12111;DHT22;6119;52.372;8.990;2023-05-06T06:45:12;13.60;99.90
12111;DHT22;6119;52.372;8.990;2023-05-06T06:47:59;13.60;99.90
12111;DHT22;6119;52.372;8.990;2023-05-06T06:50:46;13.80;99.90
12111;DHT22;6119;52.372;8.990;2023-05-06T06:53:32;13.70;99.90
12111;DHT22;6119;52.372;8.990;2023-05-06T06:56:19;13.70;99.90
12111;DHT22;6119;52.372;8.990;2023-05-06T06:59:08;13.80;99.90
12111;DHT22;6119;52.372;8.990;2023-05-06T07:01:54;14.00;99.90
12111;DHT22;6119;52.372;8.990;2023-05-06T07:04:41;14.10;99.90
12111;DHT22;6119;52.372;8.990;2023-05-06T07:07:27;14.20;99.90
12111;DHT22;6119;52.372;8.990;2023-05-06T07:10:14;14.30;99.90
12111;DHT22;6119;52.372;8.990;2023-05-06T07:13:01;14.30;99.90
12111;DHT22;6119;52.372;8.990;2023-05-06T07:15:49;14.40;99.90
12111;DHT22;6119;52.372;8.990;2023-05-06T07:18:35;14.30;99.90
12111;DHT22;6119;52.372;8.990;2023-05-06T07:21:22;14.40;99.90
12111;DHT22;6119;52.372;8.990;2023-05-06T07:24:08;14.40;99.90
12111;DHT22;6119;52.372;8.990;2023-05-06T07:26:55;14.40;99.90
12111;DHT22;6119;52.372;8.990;2023-05-06T07:29:42;14.40;99.90
12111;DHT22;6119;52.372;8.990;2023-05-06T07:32:30;14.20;99.90
12111;DHT22;6119;52.372;8.990;2023-05-06T07:35:16;14.10;99.90
12111;DHT22;6119;52.372;8.990;2023-05-06T07:38:03;14.30;99.90
12111;DHT22;6119;52.372;8.990;2023-05-06T07:40:50;14.50;99.90
12111;DHT22;6119;52.372;8.990;2023-05-06T07:43:37;14.40;99.90
12111;DHT22;6119;52.372;8.990;2023-05-06T07:46:23;14.50;99.90
12111;DHT22;6119;52.372;8.990;2023-05-06T07:49:12;14.70;99.90
12111;DHT22;6119;52.372;8.990;2023-05-06T07:51:58;14.70;99.90
12111;DHT22;6119;52.372;8.990;2023-05-06T07:54:45;14.60;99.90
12111;DHT22;6119;52.372;8.990;2023-05-06T07:57:31;14.80;99.90
12111;DHT22;6119;52.372;8.990;2023-05-06T08:00:18;14.50;99.90
12111;DHT22;6119;52.372;8.990;2023-05-06T08:03:04;14.70;99.90
12111;DHT22;6119;52.372;8.990;2023-05-06T08:05:53;14.80;99.90
12111;DHT22;6119;52.372;8.990;2023-05-06T08:08:40;14.70;99.90
12111;DHT22;6119;52.372;8.990;2023-05-06T08:11:26;14.80;99.90
12111;DHT22;6119;52.372;8.990;2023-05-06T08:14:13;14.70;99.90
12111;DHT22;6119;52.372;8.990;2023-05-06T08:16:59;15.00;99.90
12111;DHT22;6119;52.372;8.990;2023-05-06T08:19:46;15.10;99.90
12111;DHT22;6119;52.372;8.990;2023-05-06T08:22:34;15.30;99.90
12111;DHT22;6119;52.372;8.990;2023-05-06T08:25:21;15.50;99.90
12111;DHT22;6119;52.372;8.990;2023-05-06T08:28:07;15.50;99.90
12111;DHT22;6119;52.372;8.990;2023-05-06T08:30:54;15.40;99.90
12111;DHT22;6119;52.372;8.990;2023-05-06T08:33:40;15.20;99.90
12111;DHT22;6119;52.372;8.990;2023-05-06T08:36:27;15.30;99.90
12111;DHT22;6119;52.372;8.990;2023-05-06T08:39:15;15.00;99.90
12111;DHT22;6119;52.372;8.990;2023-05-06T08:42:02;15.10;99.90
12111;DHT22;6119;52.372;8.990;2023-05-06T08:44:50;14.60;99.90
12111;DHT22;6119;52.372;8.990;2023-05-06T08:47:37;14.90;99.90
12111;DHT22;6119;52.372;8.990;2023-05-06T08:50:24;15.10;99.90
12111;DHT22;6119;52.372;8.990;2023-05-06T08:53:11;15.00;99.90
12111;DHT22;6119;52.372;8.990;2023-05-06T08:56:01;15.10;99.90
12111;DHT22;6119;52.372;8.990;2023-05-06T08:58:50;15.20;99.90
12111;DHT22;6119;52.372;8.990;2023-05-06T09:01:37;15.40;99.90
12111;DHT22;6119;52.372;8.990;2023-05-06T09:04:23;15.50;99.90
12111;DHT22;6119;52.372;8.990;2023-05-06T09:07:11;15.60;99.90
12111;DHT22;6119;52.372;8.990;2023-05-06T09:09:58;15.60;99.90
12111;DHT22;6119;52.372;8.990;2023-05-06T09:12:46;15.50;99.90
12111;DHT22;6119;52.372;8.990;2023-05-06T09:15:38;15.80;99.90
12111;DHT22;6119;52.372;8.990;2023-05-06T09:18:26;15.80;99.90
12111;DHT22;6119;52.372;8.990;2023-05-06T09:21:12;15.70;99.90
12111;DHT22;6119;52.372;8.990;2023-05-06T09:23:59;15.90;99.90
12111;DHT22;6119;52.372;8.990;2023-05-06T09:26:46;15.90;99.90
12111;DHT22;6119;52.372;8.990;2023-05-06T09:29:34;16.00;99.90
12111;DHT22;6119;52.372;8.990;2023-05-06T09:32:21;15.90;99.90
12111;DHT22;6119;52.372;8.990;2023-05-06T09:35:08;16.10;99.90
12111;DHT22;6119;52.372;8.990;2023-05-06T09:37:56;15.90;99.90
12111;DHT22;6119;52.372;8.990;2023-05-06T09:40:42;16.10;99.90
12111;DHT22;6119;52.372;8.990;2023-05-06T09:43:29;16.00;99.90
12111;DHT22;6119;52.372;8.990;2023-05-06T09:46:17;16.20;99.90
12111;DHT22;6119;52.372;8.990;2023-05-06T09:49:05;16.40;99.90
12111;DHT22;6119;52.372;8.990;2023-05-06T09:51:51;16.00;99.90
12111;DHT22;6119;52.372;8.990;2023-05-06T09:54:38;15.80;99.90
12111;DHT22;6119;52.372;8.990;2023-05-06T09:57:27;16.10;99.90
12111;DHT22;6119;52.372;8.990;2023-05-06T10:00:15;16.10;99.90
12111;DHT22;6119;52.372;8.990;2023-05-06T10:03:04;16.80;99.90
12111;DHT22;6119;52.372;8.990;2023-05-06T10:05:52;17.10;99.90
12111;DHT22;6119;52.372;8.990;2023-05-06T10:08:39;17.30;99.90
12111;DHT22;6119;52.372;8.990;2023-05-06T10:11:28;17.80;99.90
12111;DHT22;6119;52.372;8.990;2023-05-06T10:14:15;18.20;99.90
12111;DHT22;6119;52.372;8.990;2023-05-06T10:17:06;18.20;99.90
12111;DHT22;6119;52.372;8.990;2023-05-06T10:19:56;17.70;99.90
12111;DHT22;6119;52.372;8.990;2023-05-06T10:22:51;17.50;99.90
12111;DHT22;6119;52.372;8.990;2023-05-06T10:25:43;17.10;99.90
12111;DHT22;6119;52.372;8.990;2023-05-06T10:28:33;17.30;99.90
12111;DHT22;6119;52.372;8.990;2023-05-06T10:31:24;17.30;99.90
12111;DHT22;6119;52.372;8.990;2023-05-06T10:34:11;17.80;99.90
12111;DHT22;6119;52.372;8.990;2023-05-06T10:36:59;18.10;99.90
12111;DHT22;6119;52.372;8.990;2023-05-06T10:39:46;18.60;99.90
12111;DHT22;6119;52.372;8.990;2023-05-06T10:42:33;18.50;99.90
12111;DHT22;6119;52.372;8.990;2023-05-06T10:45:20;18.60;99.90
12111;DHT22;6119;52.372;8.990;2023-05-06T10:48:08;18.50;99.90
12111;DHT22;6119;52.372;8.990;2023-05-06T10:51:22;18.50;99.90
12111;DHT22;6119;52.372;8.990;2023-05-06T10:54:20;18.70;99.90
12111;DHT22;6119;52.372;8.990;2023-05-06T10:57:07;18.70;99.90
12111;DHT22;6119;52.372;8.990;2023-05-06T10:59:55;18.40;99.90
12111;DHT22;6119;52.372;8.990;2023-05-06T11:02:42;18.10;99.90
12111;DHT22;6119;52.372;8.990;2023-05-06T11:05:45;18.00;99.90
12111;DHT22;6119;52.372;8.990;2023-05-06T11:08:33;18.40;99.90
12111;DHT22;6119;52.372;8.990;2023-05-06T11:11:46;19.00;99.90
12111;DHT22;6119;52.372;8.990;2023-05-06T11:14:34;19.50;99.90
12111;DHT22;6119;52.372;8.990;2023-05-06T11:17:31;19.90;99.90
12111;DHT22;6119;52.372;8.990;2023-05-06T11:20:21;20.10;99.90
12111;DHT22;6119;52.372;8.990;2023-05-06T11:23:07;20.30;99.90
12111;DHT22;6119;52.372;8.990;2023-05-06T11:25:57;20.60;99.90
12111;DHT22;6119;52.372;8.990;2023-05-06T11:28:47;20.90;99.90
12111;DHT22;6119;52.372;8.990;2023-05-06T11:31:39;20.50;99.90
12111;DHT22;6119;52.372;8.990;2023-05-06T11:34:27;20.20;99.90
12111;DHT22;6119;52.372;8.990;2023-05-06T11:37:23;19.90;99.90
12111;DHT22;6119;52.372;8.990;2023-05-06T11:40:13;19.60;99.90
12111;DHT22;6119;52.372;8.990;2023-05-06T11:43:11;19.90;99.90
12111;DHT22;6119;52.372;8.990;2023-05-06T11:45:59;20.00;99.90
12111;DHT22;6119;52.372;8.990;2023-05-06T11:48:46;20.20;99.90
12111;DHT22;6119;52.372;8.990;2023-05-06T11:51:33;19.60;99.90
12111;DHT22;6119;52.372;8.990;2023-05-06T11:54:19;19.90;99.90
12111;DHT22;6119;52.372;8.990;2023-05-06T11:57:08;19.90;99.90
12111;DHT22;6119;52.372;8.990;2023-05-06T11:59:55;20.40;99.90
12111;DHT22;6119;52.372;8.990;2023-05-06T12:02:44;20.40;99.90
12111;DHT22;6119;52.372;8.990;2023-05-06T12:05:30;20.10;99.90
12111;DHT22;6119;52.372;8.990;2023-05-06T12:08:20;20.10;99.90
12111;DHT22;6119;52.372;8.990;2023-05-06T12:11:12;19.90;99.90
12111;DHT22;6119;52.372;8.990;2023-05-06T12:13:59;19.90;99.90
12111;DHT22;6119;52.372;8.990;2023-05-06T12:16:46;20.10;99.90
12111;DHT22;6119;52.372;8.990;2023-05-06T12:19:35;20.20;99.90
12111;DHT22;6119;52.372;8.990;2023-05-06T12:22:23;20.20;99.90
12111;DHT22;6119;52.372;8.990;2023-05-06T12:25:14;20.20;99.90
12111;DHT22;6119;52.372;8.990;2023-05-06T12:28:12;19.80;99.90
12111;DHT22;6119;52.372;8.990;2023-05-06T12:31:00;19.90;99.90
12111;DHT22;6119;52.372;8.990;2023-05-06T12:33:47;19.90;99.90
12111;DHT22;6119;52.372;8.990;2023-05-06T12:36:40;20.50;99.90
12111;DHT22;6119;52.372;8.990;2023-05-06T12:39:33;20.50;99.90
12111;DHT22;6119;52.372;8.990;2023-05-06T12:42:20;20.40;99.90
12111;DHT22;6119;52.372;8.990;2023-05-06T12:45:13;20.40;99.90
12111;DHT22;6119;52.372;8.990;2023-05-06T12:48:01;20.50;99.90
12111;DHT22;6119;52.372;8.990;2023-05-06T12:50:49;20.50;99.90
12111;DHT22;6119;52.372;8.990;2023-05-06T12:53:38;20.90;99.90
12111;DHT22;6119;52.372;8.990;2023-05-06T12:56:24;21.30;99.90
12111;DHT22;6119;52.372;8.990;2023-05-06T12:59:11;21.80;99.90
12111;DHT22;6119;52.372;8.990;2023-05-06T13:01:58;22.10;99.90
12111;DHT22;6119;52.372;8.990;2023-05-06T13:04:44;22.20;99.90
12111;DHT22;6119;52.372;8.990;2023-05-06T13:07:31;22.30;99.90
12111;DHT22;6119;52.372;8.990;2023-05-06T13:10:19;22.30;99.90
12111;DHT22;6119;52.372;8.990;2023-05-06T13:13:06;22.50;99.90
12111;DHT22;6119;52.372;8.990;2023-05-06T13:15:53;22.60;99.90
12111;DHT22;6119;52.372;8.990;2023-05-06T13:18:40;22.80;99.90
12111;DHT22;6119;52.372;8.990;2023-05-06T13:21:26;22.50;99.90
12111;DHT22;6119;52.372;8.990;2023-05-06T13:24:12;22.20;99.90
12111;DHT22;6119;52.372;8.990;2023-05-06T13:27:01;22.60;99.90
12111;DHT22;6119;52.372;8.990;2023-05-06T13:29:47;22.80;99.90
12111;DHT22;6119;52.372;8.990;2023-05-06T13:32:34;22.20;99.90
12111;DHT22;6119;52.372;8.990;2023-05-06T13:35:21;21.70;99.90
12111;DHT22;6119;52.372;8.990;2023-05-06T13:38:07;21.50;99.90
12111;DHT22;6119;52.372;8.990;2023-05-06T13:40:54;21.40;99.90
12111;DHT22;6119;52.372;8.990;2023-05-06T13:43:42;21.20;99.90
12111;DHT22;6119;52.372;8.990;2023-05-06T13:46:28;21.70;99.90
12111;DHT22;6119;52.372;8.990;2023-05-06T13:49:17;22.10;99.90
12111;DHT22;6119;52.372;8.990;2023-05-06T13:52:04;22.30;99.90
12111;DHT22;6119;52.372;8.990;2023-05-06T13:54:52;22.50;99.90
12111;DHT22;6119;52.372;8.990;2023-05-06T13:57:40;22.50;99.90
12111;DHT22;6119;52.372;8.990;2023-05-06T14:00:28;21.80;99.90
12111;DHT22;6119;52.372;8.990;2023-05-06T14:03:15;21.60;99.90
12111;DHT22;6119;52.372;8.990;2023-05-06T14:06:01;21.70;99.90
12111;DHT22;6119;52.372;8.990;2023-05-06T14:08:48;22.00;99.90
12111;DHT22;6119;52.372;8.990;2023-05-06T14:11:34;22.50;99.90
12111;DHT22;6119;52.372;8.990;2023-05-06T14:14:21;22.70;99.90
12111;DHT22;6119;52.372;8.990;2023-05-06T14:17:09;22.80;99.90
12111;DHT22;6119;52.372;8.990;2023-05-06T14:19:56;23.00;99.90
12111;DHT22;6119;52.372;8.990;2023-05-06T14:22:43;23.10;99.90
12111;DHT22;6119;52.372;8.990;2023-05-06T14:25:30;23.10;99.90
12111;DHT22;6119;52.372;8.990;2023-05-06T14:28:17;23.20;99.90
12111;DHT22;6119;52.372;8.990;2023-05-06T14:31:03;23.30;99.90
12111;DHT22;6119;52.372;8.990;2023-05-06T14:33:51;23.40;99.90
12111;DHT22;6119;52.372;8.990;2023-05-06T14:36:37;23.40;99.90
12111;DHT22;6119;52.372;8.990;2023-05-06T14:39:24;23.50;99.90
12111;DHT22;6119;52.372;8.990;2023-05-06T14:42:10;23.60;99.90
12111;DHT22;6119;52.372;8.990;2023-05-06T14:44:57;23.60;99.90
12111;DHT22;6119;52.372;8.990;2023-05-06T14:47:43;23.50;99.90
12111;DHT22;6119;52.372;8.990;2023-05-06T14:50:32;23.60;99.90
12111;DHT22;6119;52.372;8.990;2023-05-06T14:53:18;23.50;99.90
12111;DHT22;6119;52.372;8.990;2023-05-06T14:56:08;23.70;99.90
12111;DHT22;6119;52.372;8.990;2023-05-06T14:58:54;23.60;99.90
12111;DHT22;6119;52.372;8.990;2023-05-06T15:01:41;23.50;99.90
12111;DHT22;6119;52.372;8.990;2023-05-06T15:04:28;23.40;99.90
12111;DHT22;6119;52.372;8.990;2023-05-06T15:07:16;23.60;99.90
12111;DHT22;6119;52.372;8.990;2023-05-06T15:10:03;23.40;99.90
12111;DHT22;6119;52.372;8.990;2023-05-06T15:12:50;23.40;99.90
12111;DHT22;6119;52.372;8.990;2023-05-06T15:15:37;23.60;99.90
12111;DHT22;6119;52.372;8.990;2023-05-06T15:18:23;23.50;99.90
12111;DHT22;6119;52.372;8.990;2023-05-06T15:21:10;23.50;99.90
12111;DHT22;6119;52.372;8.990;2023-05-06T15:23:59;23.50;99.90
12111;DHT22;6119;52.372;8.990;2023-05-06T15:26:46;23.70;99.30
12111;DHT22;6119;52.372;8.990;2023-05-06T15:29:32;23.40;99.60
12111;DHT22;6119;52.372;8.990;2023-05-06T15:32:19;23.50;99.90
12111;DHT22;6119;52.372;8.990;2023-05-06T15:35:06;23.50;99.90
12111;DHT22;6119;52.372;8.990;2023-05-06T15:37:54;23.20;99.70
12111;DHT22;6119;52.372;8.990;2023-05-06T15:40:48;23.20;99.90
12111;DHT22;6119;52.372;8.990;2023-05-06T15:43:35;23.50;99.90
12111;DHT22;6119;52.372;8.990;2023-05-06T15:46:23;23.20;98.30
12111;DHT22;6119;52.372;8.990;2023-05-06T15:49:09;23.50;98.60
12111;DHT22;6119;52.372;8.990;2023-05-06T15:52:16;23.30;98.50
12111;DHT22;6119;52.372;8.990;2023-05-06T15:55:03;23.10;98.90
12111;DHT22;6119;52.372;8.990;2023-05-06T15:57:51;23.00;99.30
12111;DHT22;6119;52.372;8.990;2023-05-06T16:00:39;22.90;98.80
12111;DHT22;6119;52.372;8.990;2023-05-06T16:03:26;22.80;99.70
12111;DHT22;6119;52.372;8.990;2023-05-06T16:06:14;22.80;99.30
12111;DHT22;6119;52.372;8.990;2023-05-06T16:09:00;22.60;99.70
12111;DHT22;6119;52.372;8.990;2023-05-06T16:11:47;22.40;98.90
12111;DHT22;6119;52.372;8.990;2023-05-06T16:14:35;22.40;99.20
12111;DHT22;6119;52.372;8.990;2023-05-06T16:17:21;22.40;99.50
12111;DHT22;6119;52.372;8.990;2023-05-06T16:20:09;22.40;99.60
12111;DHT22;6119;52.372;8.990;2023-05-06T16:22:57;22.30;99.40
12111;DHT22;6119;52.372;8.990;2023-05-06T16:25:44;22.40;99.40
12111;DHT22;6119;52.372;8.990;2023-05-06T16:28:30;22.70;98.70
12111;DHT22;6119;52.372;8.990;2023-05-06T16:31:18;22.70;99.10
12111;DHT22;6119;52.372;8.990;2023-05-06T16:34:05;22.80;99.40
12111;DHT22;6119;52.372;8.990;2023-05-06T16:36:52;23.00;98.00
12111;DHT22;6119;52.372;8.990;2023-05-06T16:39:38;22.90;98.20
12111;DHT22;6119;52.372;8.990;2023-05-06T16:42:24;23.10;98.30
12111;DHT22;6119;52.372;8.990;2023-05-06T16:45:11;23.10;98.20
12111;DHT22;6119;52.372;8.990;2023-05-06T16:47:59;23.20;97.60
12111;DHT22;6119;52.372;8.990;2023-05-06T16:50:46;23.20;98.90
12111;DHT22;6119;52.372;8.990;2023-05-06T16:53:32;23.10;98.70
12111;DHT22;6119;52.372;8.990;2023-05-06T16:56:19;22.90;98.60
12111;DHT22;6119;52.372;8.990;2023-05-06T16:59:07;22.80;98.60
12111;DHT22;6119;52.372;8.990;2023-05-06T17:01:53;22.90;99.40
12111;DHT22;6119;52.372;8.990;2023-05-06T17:04:41;22.90;98.60
12111;DHT22;6119;52.372;8.990;2023-05-06T17:07:29;23.10;98.60
12111;DHT22;6119;52.372;8.990;2023-05-06T17:10:15;22.70;97.90
12111;DHT22;6119;52.372;8.990;2023-05-06T17:13:02;22.40;98.80
12111;DHT22;6119;52.372;8.990;2023-05-06T17:15:49;22.30;99.80
12111;DHT22;6119;52.372;8.990;2023-05-06T17:18:35;22.10;99.90
12111;DHT22;6119;52.372;8.990;2023-05-06T17:21:23;22.20;99.90
12111;DHT22;6119;52.372;8.990;2023-05-06T17:24:10;22.20;99.90
12111;DHT22;6119;52.372;8.990;2023-05-06T17:26:56;22.10;99.90
12111;DHT22;6119;52.372;8.990;2023-05-06T17:29:44;22.20;99.90
12111;DHT22;6119;52.372;8.990;2023-05-06T17:32:31;22.30;99.90
12111;DHT22;6119;52.372;8.990;2023-05-06T17:35:17;22.20;99.90
12111;DHT22;6119;52.372;8.990;2023-05-06T17:38:05;22.10;99.90
12111;DHT22;6119;52.372;8.990;2023-05-06T17:40:52;21.70;99.90
12111;DHT22;6119;52.372;8.990;2023-05-06T17:43:39;21.50;99.90
12111;DHT22;6119;52.372;8.990;2023-05-06T17:46:26;21.30;99.90
12111;DHT22;6119;52.372;8.990;2023-05-06T17:49:12;21.30;99.90
12111;DHT22;6119;52.372;8.990;2023-05-06T17:51:59;21.20;99.90
12111;DHT22;6119;52.372;8.990;2023-05-06T17:54:48;21.00;99.90